sensor_id;sensor_type;location;lat;lon;timestamp;P1;durP1;ratioP1;P2;durP2;ratioP2
39492;SDS011;25176;51.060;3.720;2023-04-02T00:07:42;20.08;;;15.88;;
39492;SDS011;25176;51.060;3.720;2023-04-02T00:10:26;22.50;;;17.23;;
39492;SDS011;25176;51.060;3.720;2023-04-02T00:13:00;24.77;;;17.10;;
39492;SDS011;25176;51.060;3.720;2023-04-02T00:15:53;23.92;;;16.67;;
39492;SDS011;25176;51.060;3.720;2023-04-02T00:18:21;19.90;;;15.30;;
39492;SDS011;25176;51.060;3.720;2023-04-02T00:23:38;21.08;;;15.55;;
39492;SDS011;25176;51.060;3.720;2023-04-02T00:26:51;27.52;;;16.60;;
39492;SDS011;25176;51.060;3.720;2023-04-02T00:29:03;21.90;;;15.55;;
39492;SDS011;25176;51.060;3.720;2023-04-02T00:31:30;20.45;;;15.18;;
39492;SDS011;25176;51.060;3.720;2023-04-02T00:33:57;19.20;;;15.13;;
39492;SDS011;25176;51.060;3.720;2023-04-02T00:36:25;20.95;;;16.33;;
39492;SDS011;25176;51.060;3.720;2023-04-02T00:38:55;20.58;;;15.38;;
39492;SDS011;25176;51.060;3.720;2023-04-02T00:41:23;19.35;;;14.93;;
39492;SDS011;25176;51.060;3.720;2023-04-02T00:44:00;19.45;;;15.52;;
39492;SDS011;25176;51.060;3.720;2023-04-02T00:46:30;18.48;;;15.02;;
39492;SDS011;25176;51.060;3.720;2023-04-02T00:49:13;20.98;;;14.65;;
39492;SDS011;25176;51.060;3.720;2023-04-02T00:51:53;19.55;;;14.93;;
39492;SDS011;25176;51.060;3.720;2023-04-02T00:54:22;21.77;;;14.80;;
39492;SDS011;25176;51.060;3.720;2023-04-02T00:56:52;22.15;;;15.43;;
39492;SDS011;25176;51.060;3.720;2023-04-02T01:02:00;19.73;;;14.77;;
39492;SDS011;25176;51.060;3.720;2023-04-02T01:04:45;20.83;;;15.57;;
39492;SDS011;25176;51.060;3.720;2023-04-02T01:07:17;21.15;;;14.95;;
39492;SDS011;25176;51.060;3.720;2023-04-02T01:15:29;21.00;;;15.65;;
39492;SDS011;25176;51.060;3.720;2023-04-02T01:18:10;18.42;;;14.75;;
39492;SDS011;25176;51.060;3.720;2023-04-02T01:23:23;19.27;;;14.50;;
39492;SDS011;25176;51.060;3.720;2023-04-02T01:25:55;23.08;;;15.98;;
39492;SDS011;25176;51.060;3.720;2023-04-02T01:28:47;20.98;;;15.15;;
39492;SDS011;25176;51.060;3.720;2023-04-02T01:31:30;18.92;;;14.82;;
39492;SDS011;25176;51.060;3.720;2023-04-02T01:33:58;16.50;;;14.73;;
39492;SDS011;25176;51.060;3.720;2023-04-02T01:36:36;19.77;;;15.02;;
39492;SDS011;25176;51.060;3.720;2023-04-02T01:42:06;18.63;;;15.48;;
39492;SDS011;25176;51.060;3.720;2023-04-02T01:44:42;19.05;;;15.88;;
39492;SDS011;25176;51.060;3.720;2023-04-02T01:47:14;18.77;;;15.70;;
39492;SDS011;25176;51.060;3.720;2023-04-02T01:49:42;20.58;;;16.98;;
39492;SDS011;25176;51.060;3.720;2023-04-02T01:52:12;24.60;;;18.08;;
39492;SDS011;25176;51.060;3.720;2023-04-02T01:54:42;22.40;;;18.08;;
39492;SDS011;25176;51.060;3.720;2023-04-02T01:57:08;26.25;;;19.15;;
39492;SDS011;25176;51.060;3.720;2023-04-02T01:59:34;24.95;;;19.35;;
39492;SDS011;25176;51.060;3.720;2023-04-02T02:02:02;23.33;;;19.83;;
39492;SDS011;25176;51.060;3.720;2023-04-02T02:04:30;23.45;;;19.42;;
39492;SDS011;25176;51.060;3.720;2023-04-02T02:06:57;25.63;;;19.02;;
39492;SDS011;25176;51.060;3.720;2023-04-02T02:09:27;23.50;;;20.17;;
39492;SDS011;25176;51.060;3.720;2023-04-02T02:11:55;23.20;;;19.05;;
39492;SDS011;25176;51.060;3.720;2023-04-02T02:14:23;23.50;;;18.27;;
39492;SDS011;25176;51.060;3.720;2023-04-02T02:16:51;23.00;;;18.45;;
39492;SDS011;25176;51.060;3.720;2023-04-02T02:21:56;23.55;;;18.70;;
39492;SDS011;25176;51.060;3.720;2023-04-02T02:24:31;26.30;;;19.40;;
39492;SDS011;25176;51.060;3.720;2023-04-02T02:27:12;24.20;;;17.63;;
39492;SDS011;25176;51.060;3.720;2023-04-02T02:29:51;19.25;;;17.15;;
39492;SDS011;25176;51.060;3.720;2023-04-02T02:32:28;17.17;;;15.20;;
39492;SDS011;25176;51.060;3.720;2023-04-02T02:34:58;16.70;;;14.03;;
39492;SDS011;25176;51.060;3.720;2023-04-02T02:37:29;18.67;;;16.67;;
39492;SDS011;25176;51.060;3.720;2023-04-02T02:40:02;22.70;;;15.75;;
39492;SDS011;25176;51.060;3.720;2023-04-02T02:42:37;18.55;;;16.58;;
39492;SDS011;25176;51.060;3.720;2023-04-02T02:45:05;18.40;;;16.40;;
39492;SDS011;25176;51.060;3.720;2023-04-02T02:47:37;20.60;;;16.30;;
39492;SDS011;25176;51.060;3.720;2023-04-02T02:50:06;18.00;;;15.65;;
39492;SDS011;25176;51.060;3.720;2023-04-02T02:52:37;20.35;;;17.13;;
39492;SDS011;25176;51.060;3.720;2023-04-02T02:55:05;17.85;;;15.93;;
39492;SDS011;25176;51.060;3.720;2023-04-02T02:57:42;20.88;;;16.50;;
39492;SDS011;25176;51.060;3.720;2023-04-02T03:00:13;21.83;;;16.60;;
39492;SDS011;25176;51.060;3.720;2023-04-02T03:02:41;21.23;;;17.05;;
39492;SDS011;25176;51.060;3.720;2023-04-02T03:05:08;22.90;;;18.05;;
39492;SDS011;25176;51.060;3.720;2023-04-02T03:07:39;21.92;;;18.20;;
39492;SDS011;25176;51.060;3.720;2023-04-02T03:10:09;23.60;;;18.73;;
39492;SDS011;25176;51.060;3.720;2023-04-02T03:16:01;23.52;;;18.23;;
39492;SDS011;25176;51.060;3.720;2023-04-02T03:18:38;23.83;;;17.30;;
39492;SDS011;25176;51.060;3.720;2023-04-02T03:21:21;23.73;;;17.50;;
39492;SDS011;25176;51.060;3.720;2023-04-02T03:24:05;24.63;;;18.35;;
39492;SDS011;25176;51.060;3.720;2023-04-02T03:26:42;28.55;;;18.48;;
39492;SDS011;25176;51.060;3.720;2023-04-02T03:29:16;28.90;;;19.33;;
39492;SDS011;25176;51.060;3.720;2023-04-02T03:32:05;26.63;;;18.92;;
39492;SDS011;25176;51.060;3.720;2023-04-02T03:37:23;27.02;;;20.45;;
39492;SDS011;25176;51.060;3.720;2023-04-02T03:40:07;27.60;;;20.85;;
39492;SDS011;25176;51.060;3.720;2023-04-02T03:42:48;27.20;;;22.17;;
39492;SDS011;25176;51.060;3.720;2023-04-02T03:45:18;28.13;;;22.05;;
39492;SDS011;25176;51.060;3.720;2023-04-02T03:47:55;26.50;;;21.45;;
39492;SDS011;25176;51.060;3.720;2023-04-02T03:50:30;24.77;;;22.13;;
39492;SDS011;25176;51.060;3.720;2023-04-02T03:53:00;24.60;;;20.33;;
39492;SDS011;25176;51.060;3.720;2023-04-02T03:55:31;26.55;;;21.17;;
39492;SDS011;25176;51.060;3.720;2023-04-02T04:00:38;25.10;;;19.67;;
39492;SDS011;25176;51.060;3.720;2023-04-02T04:06:04;25.73;;;19.30;;
39492;SDS011;25176;51.060;3.720;2023-04-02T04:11:16;21.98;;;17.75;;
39492;SDS011;25176;51.060;3.720;2023-04-02T04:13:47;24.13;;;18.63;;
39492;SDS011;25176;51.060;3.720;2023-04-02T04:16:28;20.52;;;16.63;;
39492;SDS011;25176;51.060;3.720;2023-04-02T04:19:05;25.95;;;18.33;;
39492;SDS011;25176;51.060;3.720;2023-04-02T04:21:42;22.40;;;16.85;;
39492;SDS011;25176;51.060;3.720;2023-04-02T04:24:19;20.10;;;16.20;;
39492;SDS011;25176;51.060;3.720;2023-04-02T04:32:21;18.65;;;15.90;;
39492;SDS011;25176;51.060;3.720;2023-04-02T04:34:53;18.50;;;15.93;;
39492;SDS011;25176;51.060;3.720;2023-04-02T04:37:30;21.02;;;16.15;;
39492;SDS011;25176;51.060;3.720;2023-04-02T04:40:10;17.90;;;15.98;;
39492;SDS011;25176;51.060;3.720;2023-04-02T04:42:45;16.77;;;14.93;;
39492;SDS011;25176;51.060;3.720;2023-04-02T04:47:57;20.20;;;15.50;;
39492;SDS011;25176;51.060;3.720;2023-04-02T04:50:37;18.63;;;15.90;;
39492;SDS011;25176;51.060;3.720;2023-04-02T04:53:23;17.80;;;15.25;;
39492;SDS011;25176;51.060;3.720;2023-04-02T04:56:00;20.27;;;14.90;;
39492;SDS011;25176;51.060;3.720;2023-04-02T04:58:32;20.45;;;15.32;;
39492;SDS011;25176;51.060;3.720;2023-04-02T05:01:06;19.83;;;15.63;;
39492;SDS011;25176;51.060;3.720;2023-04-02T05:09:09;18.08;;;14.82;;
39492;SDS011;25176;51.060;3.720;2023-04-02T05:17:41;15.82;;;12.85;;
39492;SDS011;25176;51.060;3.720;2023-04-02T05:20:23;18.48;;;13.50;;
39492;SDS011;25176;51.060;3.720;2023-04-02T05:22:55;16.08;;;12.77;;
39492;SDS011;25176;51.060;3.720;2023-04-02T05:25:22;19.40;;;14.57;;
39492;SDS011;25176;51.060;3.720;2023-04-02T05:30:36;16.80;;;13.95;;
39492;SDS011;25176;51.060;3.720;2023-04-02T05:33:17;16.13;;;13.70;;
39492;SDS011;25176;51.060;3.720;2023-04-02T05:35:51;19.58;;;12.85;;
39492;SDS011;25176;51.060;3.720;2023-04-02T05:38:21;18.75;;;13.20;;
39492;SDS011;25176;51.060;3.720;2023-04-02T05:43:32;19.38;;;13.55;;
39492;SDS011;25176;51.060;3.720;2023-04-02T05:46:06;16.67;;;12.32;;
39492;SDS011;25176;51.060;3.720;2023-04-02T05:48:40;22.25;;;13.38;;
39492;SDS011;25176;51.060;3.720;2023-04-02T05:51:10;15.55;;;13.05;;
39492;SDS011;25176;51.060;3.720;2023-04-02T05:53:51;14.48;;;12.63;;
39492;SDS011;25176;51.060;3.720;2023-04-02T05:56:21;14.77;;;12.43;;
39492;SDS011;25176;51.060;3.720;2023-04-02T05:59:15;15.10;;;12.10;;
39492;SDS011;25176;51.060;3.720;2023-04-02T06:01:47;15.48;;;12.90;;
39492;SDS011;25176;51.060;3.720;2023-04-02T06:09:34;14.10;;;12.10;;
39492;SDS011;25176;51.060;3.720;2023-04-02T06:15:12;15.70;;;13.18;;
39492;SDS011;25176;51.060;3.720;2023-04-02T06:17:58;15.55;;;11.55;;
39492;SDS011;25176;51.060;3.720;2023-04-02T06:20:29;12.98;;;10.02;;
39492;SDS011;25176;51.060;3.720;2023-04-02T06:22:58;14.43;;;11.10;;
39492;SDS011;25176;51.060;3.720;2023-04-02T06:25:26;15.48;;;11.95;;
39492;SDS011;25176;51.060;3.720;2023-04-02T06:28:02;13.65;;;11.32;;
39492;SDS011;25176;51.060;3.720;2023-04-02T06:30:35;12.90;;;10.25;;
39492;SDS011;25176;51.060;3.720;2023-04-02T06:33:03;12.77;;;10.02;;
39492;SDS011;25176;51.060;3.720;2023-04-02T06:35:29;12.45;;;9.60;;
39492;SDS011;25176;51.060;3.720;2023-04-02T06:37:57;14.50;;;9.80;;
39492;SDS011;25176;51.060;3.720;2023-04-02T06:40:33;12.82;;;10.57;;
39492;SDS011;25176;51.060;3.720;2023-04-02T06:46:03;13.35;;;9.20;;
39492;SDS011;25176;51.060;3.720;2023-04-02T06:48:34;11.45;;;9.60;;
39492;SDS011;25176;51.060;3.720;2023-04-02T06:51:09;13.98;;;10.18;;
39492;SDS011;25176;51.060;3.720;2023-04-02T06:53:42;17.60;;;10.88;;
39492;SDS011;25176;51.060;3.720;2023-04-02T06:56:22;12.52;;;9.65;;
39492;SDS011;25176;51.060;3.720;2023-04-02T06:58:57;15.30;;;11.30;;
39492;SDS011;25176;51.060;3.720;2023-04-02T07:01:27;13.50;;;10.00;;
39492;SDS011;25176;51.060;3.720;2023-04-02T07:03:56;12.68;;;10.77;;
39492;SDS011;25176;51.060;3.720;2023-04-02T07:06:22;16.15;;;11.48;;
39492;SDS011;25176;51.060;3.720;2023-04-02T07:08:48;15.48;;;11.82;;
39492;SDS011;25176;51.060;3.720;2023-04-02T07:11:14;13.27;;;9.93;;
39492;SDS011;25176;51.060;3.720;2023-04-02T07:13:42;12.13;;;8.50;;
39492;SDS011;25176;51.060;3.720;2023-04-02T07:16:15;12.88;;;9.77;;
39492;SDS011;25176;51.060;3.720;2023-04-02T07:18:45;11.43;;;8.35;;
39492;SDS011;25176;51.060;3.720;2023-04-02T07:21:11;10.50;;;8.63;;
39492;SDS011;25176;51.060;3.720;2023-04-02T07:23:36;10.82;;;8.25;;
39492;SDS011;25176;51.060;3.720;2023-04-02T07:26:02;11.85;;;8.52;;
39492;SDS011;25176;51.060;3.720;2023-04-02T07:28:29;12.80;;;9.45;;
39492;SDS011;25176;51.060;3.720;2023-04-02T07:30:55;11.15;;;9.23;;
39492;SDS011;25176;51.060;3.720;2023-04-02T07:33:22;12.25;;;9.35;;
39492;SDS011;25176;51.060;3.720;2023-04-02T07:35:51;12.18;;;9.25;;
39492;SDS011;25176;51.060;3.720;2023-04-02T07:38:17;10.77;;;8.55;;
39492;SDS011;25176;51.060;3.720;2023-04-02T07:40:43;14.82;;;9.23;;
39492;SDS011;25176;51.060;3.720;2023-04-02T07:43:09;10.15;;;8.43;;
39492;SDS011;25176;51.060;3.720;2023-04-02T07:45:35;13.73;;;8.40;;
39492;SDS011;25176;51.060;3.720;2023-04-02T07:48:04;11.93;;;7.97;;
39492;SDS011;25176;51.060;3.720;2023-04-02T07:50:31;9.82;;;8.68;;
39492;SDS011;25176;51.060;3.720;2023-04-02T07:52:57;11.55;;;9.30;;
39492;SDS011;25176;51.060;3.720;2023-04-02T07:55:22;14.63;;;9.40;;
39492;SDS011;25176;51.060;3.720;2023-04-02T07:57:49;9.40;;;7.13;;
39492;SDS011;25176;51.060;3.720;2023-04-02T08:00:19;8.27;;;6.20;;
39492;SDS011;25176;51.060;3.720;2023-04-02T08:02:46;6.85;;;6.15;;
39492;SDS011;25176;51.060;3.720;2023-04-02T08:05:12;8.18;;;5.53;;
39492;SDS011;25176;51.060;3.720;2023-04-02T08:07:38;7.00;;;6.03;;
39492;SDS011;25176;51.060;3.720;2023-04-02T08:10:04;9.05;;;7.15;;
39492;SDS011;25176;51.060;3.720;2023-04-02T08:12:31;8.02;;;6.60;;
39492;SDS011;25176;51.060;3.720;2023-04-02T08:14:56;10.38;;;7.72;;
39492;SDS011;25176;51.060;3.720;2023-04-02T08:17:22;11.18;;;8.95;;
39492;SDS011;25176;51.060;3.720;2023-04-02T08:19:48;11.40;;;8.77;;
39492;SDS011;25176;51.060;3.720;2023-04-02T08:22:14;11.43;;;8.90;;
39492;SDS011;25176;51.060;3.720;2023-04-02T08:24:40;13.05;;;8.55;;
39492;SDS011;25176;51.060;3.720;2023-04-02T08:27:06;12.82;;;10.73;;
39492;SDS011;25176;51.060;3.720;2023-04-02T08:29:31;14.18;;;11.25;;
39492;SDS011;25176;51.060;3.720;2023-04-02T08:31:58;12.75;;;10.55;;
39492;SDS011;25176;51.060;3.720;2023-04-02T08:34:24;10.40;;;8.68;;
39492;SDS011;25176;51.060;3.720;2023-04-02T08:36:54;16.25;;;11.50;;
39492;SDS011;25176;51.060;3.720;2023-04-02T08:39:21;14.95;;;11.68;;
39492;SDS011;25176;51.060;3.720;2023-04-02T08:47:13;13.45;;;10.93;;
39492;SDS011;25176;51.060;3.720;2023-04-02T08:52:23;16.45;;;12.45;;
39492;SDS011;25176;51.060;3.720;2023-04-02T08:54:51;13.73;;;12.30;;
39492;SDS011;25176;51.060;3.720;2023-04-02T09:02:46;14.50;;;8.45;;
39492;SDS011;25176;51.060;3.720;2023-04-02T09:05:20;12.07;;;9.32;;
39492;SDS011;25176;51.060;3.720;2023-04-02T09:10:17;10.68;;;8.50;;
39492;SDS011;25176;51.060;3.720;2023-04-02T09:12:45;11.90;;;10.30;;
39492;SDS011;25176;51.060;3.720;2023-04-02T09:15:19;16.92;;;13.77;;
39492;SDS011;25176;51.060;3.720;2023-04-02T09:17:58;17.75;;;13.10;;
39492;SDS011;25176;51.060;3.720;2023-04-02T09:20:37;13.23;;;9.68;;
39492;SDS011;25176;51.060;3.720;2023-04-02T09:23:03;10.48;;;8.65;;
39492;SDS011;25176;51.060;3.720;2023-04-02T09:25:30;11.00;;;7.60;;
39492;SDS011;25176;51.060;3.720;2023-04-02T09:27:56;8.55;;;6.20;;
39492;SDS011;25176;51.060;3.720;2023-04-02T09:32:54;5.50;;;4.63;;
39492;SDS011;25176;51.060;3.720;2023-04-02T09:35:28;7.28;;;5.35;;
39492;SDS011;25176;51.060;3.720;2023-04-02T09:38:10;6.63;;;5.45;;
39492;SDS011;25176;51.060;3.720;2023-04-02T09:43:23;6.82;;;6.13;;
39492;SDS011;25176;51.060;3.720;2023-04-02T09:48:42;10.75;;;7.88;;
39492;SDS011;25176;51.060;3.720;2023-04-02T09:56:34;12.80;;;11.20;;
39492;SDS011;25176;51.060;3.720;2023-04-02T09:59:14;11.27;;;9.15;;
39492;SDS011;25176;51.060;3.720;2023-04-02T10:01:45;11.80;;;8.35;;
39492;SDS011;25176;51.060;3.720;2023-04-02T10:07:01;9.70;;;7.65;;
39492;SDS011;25176;51.060;3.720;2023-04-02T10:09:28;12.57;;;7.68;;
39492;SDS011;25176;51.060;3.720;2023-04-02T10:11:57;9.02;;;6.95;;
39492;SDS011;25176;51.060;3.720;2023-04-02T10:14:35;10.02;;;6.00;;
39492;SDS011;25176;51.060;3.720;2023-04-02T10:17:13;7.03;;;6.13;;
39492;SDS011;25176;51.060;3.720;2023-04-02T10:19:46;9.00;;;6.15;;
39492;SDS011;25176;51.060;3.720;2023-04-02T10:22:20;9.63;;;6.38;;
39492;SDS011;25176;51.060;3.720;2023-04-02T10:24:47;8.13;;;7.32;;
39492;SDS011;25176;51.060;3.720;2023-04-02T10:46:03;10.32;;;4.88;;
39492;SDS011;25176;51.060;3.720;2023-04-02T10:51:28;6.15;;;5.20;;
39492;SDS011;25176;51.060;3.720;2023-04-02T10:56:41;5.90;;;4.95;;
39492;SDS011;25176;51.060;3.720;2023-04-02T10:59:12;5.53;;;4.85;;
39492;SDS011;25176;51.060;3.720;2023-04-02T11:01:47;8.90;;;6.97;;
39492;SDS011;25176;51.060;3.720;2023-04-02T11:04:18;6.80;;;4.80;;
39492;SDS011;25176;51.060;3.720;2023-04-02T11:06:56;7.43;;;5.43;;
39492;SDS011;25176;51.060;3.720;2023-04-02T11:09:29;7.18;;;5.22;;
39492;SDS011;25176;51.060;3.720;2023-04-02T11:12:01;8.98;;;7.15;;
39492;SDS011;25176;51.060;3.720;2023-04-02T11:14:30;7.57;;;5.35;;
39492;SDS011;25176;51.060;3.720;2023-04-02T11:16:56;10.23;;;6.82;;
39492;SDS011;25176;51.060;3.720;2023-04-02T11:24:44;7.68;;;5.88;;
39492;SDS011;25176;51.060;3.720;2023-04-02T11:32:42;5.60;;;4.57;;
39492;SDS011;25176;51.060;3.720;2023-04-02T11:35:34;8.50;;;4.90;;
39492;SDS011;25176;51.060;3.720;2023-04-02T11:45:59;7.05;;;4.72;;
39492;SDS011;25176;51.060;3.720;2023-04-02T11:48:40;5.88;;;4.47;;
39492;SDS011;25176;51.060;3.720;2023-04-02T11:53:47;7.28;;;4.85;;
39492;SDS011;25176;51.060;3.720;2023-04-02T11:56:19;4.30;;;3.88;;
39492;SDS011;25176;51.060;3.720;2023-04-02T12:01:43;6.63;;;6.00;;
39492;SDS011;25176;51.060;3.720;2023-04-02T12:10:19;6.03;;;5.45;;
39492;SDS011;25176;51.060;3.720;2023-04-02T12:12:46;10.65;;;6.07;;
39492;SDS011;25176;51.060;3.720;2023-04-02T12:18:22;8.48;;;7.00;;
39492;SDS011;25176;51.060;3.720;2023-04-02T12:20:49;7.07;;;6.40;;
39492;SDS011;25176;51.060;3.720;2023-04-02T12:23:37;8.40;;;5.57;;
39492;SDS011;25176;51.060;3.720;2023-04-02T12:26:03;6.05;;;4.57;;
39492;SDS011;25176;51.060;3.720;2023-04-02T12:28:31;5.13;;;4.63;;
39492;SDS011;25176;51.060;3.720;2023-04-02T12:31:10;5.32;;;4.63;;
39492;SDS011;25176;51.060;3.720;2023-04-02T12:33:38;5.70;;;4.80;;
39492;SDS011;25176;51.060;3.720;2023-04-02T12:36:20;6.40;;;4.50;;
39492;SDS011;25176;51.060;3.720;2023-04-02T12:43:56;6.28;;;5.00;;
39492;SDS011;25176;51.060;3.720;2023-04-02T12:46:22;6.88;;;4.60;;
39492;SDS011;25176;51.060;3.720;2023-04-02T12:48:50;4.78;;;4.13;;
39492;SDS011;25176;51.060;3.720;2023-04-02T12:51:17;5.53;;;4.18;;
39492;SDS011;25176;51.060;3.720;2023-04-02T12:53:46;4.57;;;4.18;;
39492;SDS011;25176;51.060;3.720;2023-04-02T12:56:19;5.18;;;4.30;;
39492;SDS011;25176;51.060;3.720;2023-04-02T12:58:59;4.43;;;3.95;;
39492;SDS011;25176;51.060;3.720;2023-04-02T13:01:26;7.35;;;5.80;;
39492;SDS011;25176;51.060;3.720;2023-04-02T13:06:28;6.32;;;5.15;;
39492;SDS011;25176;51.060;3.720;2023-04-02T13:08:54;7.10;;;5.18;;
39492;SDS011;25176;51.060;3.720;2023-04-02T13:11:20;5.07;;;4.57;;
39492;SDS011;25176;51.060;3.720;2023-04-02T13:13:47;4.88;;;4.22;;
39492;SDS011;25176;51.060;3.720;2023-04-02T13:18:39;5.38;;;3.88;;
39492;SDS011;25176;51.060;3.720;2023-04-02T13:23:43;6.20;;;5.30;;
39492;SDS011;25176;51.060;3.720;2023-04-02T13:26:25;7.35;;;4.95;;
39492;SDS011;25176;51.060;3.720;2023-04-02T13:28:59;6.38;;;5.60;;
39492;SDS011;25176;51.060;3.720;2023-04-02T13:31:44;6.50;;;5.38;;
39492;SDS011;25176;51.060;3.720;2023-04-02T13:34:10;7.95;;;4.97;;
39492;SDS011;25176;51.060;3.720;2023-04-02T13:36:36;7.25;;;5.40;;
39492;SDS011;25176;51.060;3.720;2023-04-02T13:39:01;5.30;;;4.80;;
39492;SDS011;25176;51.060;3.720;2023-04-02T13:41:29;6.30;;;5.40;;
39492;SDS011;25176;51.060;3.720;2023-04-02T13:43:58;7.72;;;6.13;;
39492;SDS011;25176;51.060;3.720;2023-04-02T13:46:27;10.60;;;7.90;;
39492;SDS011;25176;51.060;3.720;2023-04-02T13:48:54;7.45;;;6.57;;
39492;SDS011;25176;51.060;3.720;2023-04-02T13:51:40;9.32;;;6.65;;
39492;SDS011;25176;51.060;3.720;2023-04-02T13:54:14;7.75;;;5.95;;
39492;SDS011;25176;51.060;3.720;2023-04-02T13:56:51;7.88;;;4.90;;
39492;SDS011;25176;51.060;3.720;2023-04-02T13:59:18;5.45;;;4.65;;
39492;SDS011;25176;51.060;3.720;2023-04-02T14:01:44;5.07;;;4.57;;
39492;SDS011;25176;51.060;3.720;2023-04-02T14:04:12;5.10;;;4.20;;
39492;SDS011;25176;51.060;3.720;2023-04-02T14:09:32;5.07;;;4.40;;
39492;SDS011;25176;51.060;3.720;2023-04-02T14:23:19;5.20;;;4.70;;
39492;SDS011;25176;51.060;3.720;2023-04-02T14:26:00;4.65;;;4.20;;
39492;SDS011;25176;51.060;3.720;2023-04-02T14:34:07;4.95;;;4.03;;
39492;SDS011;25176;51.060;3.720;2023-04-02T14:36:41;6.68;;;3.72;;
39492;SDS011;25176;51.060;3.720;2023-04-02T14:39:14;4.22;;;3.83;;
39492;SDS011;25176;51.060;3.720;2023-04-02T14:44:50;8.65;;;4.00;;
39492;SDS011;25176;51.060;3.720;2023-04-02T14:50:16;3.83;;;3.47;;
39492;SDS011;25176;51.060;3.720;2023-04-02T14:52:48;4.25;;;3.60;;
39492;SDS011;25176;51.060;3.720;2023-04-02T14:55:20;4.35;;;3.95;;
39492;SDS011;25176;51.060;3.720;2023-04-02T14:58:08;3.97;;;3.00;;
39492;SDS011;25176;51.060;3.720;2023-04-02T15:00:50;2.90;;;2.60;;
39492;SDS011;25176;51.060;3.720;2023-04-02T15:03:22;3.47;;;2.53;;
39492;SDS011;25176;51.060;3.720;2023-04-02T15:08:39;3.17;;;2.58;;
39492;SDS011;25176;51.060;3.720;2023-04-02T15:11:28;2.78;;;2.42;;
39492;SDS011;25176;51.060;3.720;2023-04-02T15:14:19;4.40;;;2.92;;
39492;SDS011;25176;51.060;3.720;2023-04-02T15:16:48;4.07;;;2.40;;
39492;SDS011;25176;51.060;3.720;2023-04-02T15:19:17;3.25;;;2.30;;
39492;SDS011;25176;51.060;3.720;2023-04-02T15:24:52;2.80;;;2.25;;
39492;SDS011;25176;51.060;3.720;2023-04-02T15:27:33;3.38;;;2.75;;
39492;SDS011;25176;51.060;3.720;2023-04-02T15:32:37;2.80;;;2.60;;
39492;SDS011;25176;51.060;3.720;2023-04-02T15:37:38;4.75;;;2.55;;
39492;SDS011;25176;51.060;3.720;2023-04-02T15:40:15;3.53;;;2.70;;
39492;SDS011;25176;51.060;3.720;2023-04-02T15:43:20;4.43;;;2.85;;
39492;SDS011;25176;51.060;3.720;2023-04-02T15:46:08;2.90;;;2.70;;
39492;SDS011;25176;51.060;3.720;2023-04-02T15:51:43;2.88;;;2.67;;
39492;SDS011;25176;51.060;3.720;2023-04-02T15:54:18;3.08;;;2.58;;
39492;SDS011;25176;51.060;3.720;2023-04-02T15:59:29;6.25;;;3.47;;
39492;SDS011;25176;51.060;3.720;2023-04-02T16:02:14;4.13;;;2.80;;
39492;SDS011;25176;51.060;3.720;2023-04-02T16:05:09;3.22;;;2.50;;
39492;SDS011;25176;51.060;3.720;2023-04-02T16:10:39;3.80;;;2.85;;
39492;SDS011;25176;51.060;3.720;2023-04-02T16:13:17;5.22;;;2.63;;
39492;SDS011;25176;51.060;3.720;2023-04-02T16:15:50;2.72;;;2.42;;
39492;SDS011;25176;51.060;3.720;2023-04-02T16:18:24;2.50;;;1.73;;
39492;SDS011;25176;51.060;3.720;2023-04-02T16:21:07;3.15;;;1.90;;
39492;SDS011;25176;51.060;3.720;2023-04-02T16:23:37;2.05;;;1.80;;
39492;SDS011;25176;51.060;3.720;2023-04-02T16:28:58;2.63;;;2.38;;
39492;SDS011;25176;51.060;3.720;2023-04-02T16:34:38;3.10;;;2.60;;
39492;SDS011;25176;51.060;3.720;2023-04-02T16:37:29;4.35;;;2.67;;
39492;SDS011;25176;51.060;3.720;2023-04-02T16:40:09;3.22;;;2.25;;
39492;SDS011;25176;51.060;3.720;2023-04-02T16:58:53;4.60;;;2.08;;
39492;SDS011;25176;51.060;3.720;2023-04-02T17:07:03;4.53;;;2.63;;
39492;SDS011;25176;51.060;3.720;2023-04-02T17:15:02;2.42;;;2.08;;
39492;SDS011;25176;51.060;3.720;2023-04-02T17:17:38;4.70;;;2.50;;
39492;SDS011;25176;51.060;3.720;2023-04-02T17:20:05;4.00;;;2.60;;
39492;SDS011;25176;51.060;3.720;2023-04-02T17:22:41;7.35;;;2.60;;
39492;SDS011;25176;51.060;3.720;2023-04-02T17:25:11;4.43;;;2.58;;
39492;SDS011;25176;51.060;3.720;2023-04-02T17:27:49;3.40;;;2.50;;
39492;SDS011;25176;51.060;3.720;2023-04-02T17:30:31;2.70;;;2.50;;
39492;SDS011;25176;51.060;3.720;2023-04-02T17:33:13;4.13;;;2.72;;
39492;SDS011;25176;51.060;3.720;2023-04-02T17:35:47;4.53;;;2.63;;
39492;SDS011;25176;51.060;3.720;2023-04-02T17:40:57;5.35;;;2.88;;
39492;SDS011;25176;51.060;3.720;2023-04-02T17:49:35;3.00;;;2.70;;
39492;SDS011;25176;51.060;3.720;2023-04-02T17:52:28;3.72;;;2.83;;
39492;SDS011;25176;51.060;3.720;2023-04-02T17:55:24;5.07;;;3.00;;
39492;SDS011;25176;51.060;3.720;2023-04-02T18:03:29;4.47;;;3.58;;
39492;SDS011;25176;51.060;3.720;2023-04-02T18:14:22;4.28;;;3.55;;
39492;SDS011;25176;51.060;3.720;2023-04-02T18:22:10;9.70;;;4.90;;
39492;SDS011;25176;51.060;3.720;2023-04-02T18:24:55;6.22;;;4.10;;
39492;SDS011;25176;51.060;3.720;2023-04-02T18:46:53;7.63;;;6.18;;
39492;SDS011;25176;51.060;3.720;2023-04-02T18:49:27;15.02;;;9.65;;
39492;SDS011;25176;51.060;3.720;2023-04-02T18:52:22;12.75;;;8.07;;
39492;SDS011;25176;51.060;3.720;2023-04-02T18:54:51;10.40;;;7.63;;
39492;SDS011;25176;51.060;3.720;2023-04-02T18:57:23;15.88;;;11.23;;
39492;SDS011;25176;51.060;3.720;2023-04-02T18:59:55;16.20;;;11.95;;
39492;SDS011;25176;51.060;3.720;2023-04-02T19:08:15;18.25;;;11.45;;
39492;SDS011;25176;51.060;3.720;2023-04-02T19:10:49;14.60;;;10.27;;
39492;SDS011;25176;51.060;3.720;2023-04-02T19:13:18;13.07;;;9.27;;
39492;SDS011;25176;51.060;3.720;2023-04-02T19:18:59;9.50;;;7.32;;
39492;SDS011;25176;51.060;3.720;2023-04-02T19:27:37;10.07;;;7.72;;
39492;SDS011;25176;51.060;3.720;2023-04-02T19:44:16;11.43;;;7.40;;
39492;SDS011;25176;51.060;3.720;2023-04-02T19:46:42;8.65;;;6.97;;
39492;SDS011;25176;51.060;3.720;2023-04-02T19:49:16;10.77;;;8.50;;
39492;SDS011;25176;51.060;3.720;2023-04-02T19:51:48;10.05;;;7.03;;
39492;SDS011;25176;51.060;3.720;2023-04-02T19:54:14;9.73;;;7.70;;
39492;SDS011;25176;51.060;3.720;2023-04-02T19:56:40;7.95;;;6.85;;
39492;SDS011;25176;51.060;3.720;2023-04-02T19:59:06;7.88;;;7.05;;
39492;SDS011;25176;51.060;3.720;2023-04-02T20:01:33;8.20;;;6.45;;
39492;SDS011;25176;51.060;3.720;2023-04-02T20:03:59;11.57;;;6.57;;
39492;SDS011;25176;51.060;3.720;2023-04-02T20:06:25;9.13;;;6.00;;
39492;SDS011;25176;51.060;3.720;2023-04-02T20:08:51;10.70;;;6.30;;
39492;SDS011;25176;51.060;3.720;2023-04-02T20:11:17;8.93;;;5.90;;
39492;SDS011;25176;51.060;3.720;2023-04-02T20:13:42;6.82;;;6.13;;
39492;SDS011;25176;51.060;3.720;2023-04-02T20:16:08;9.73;;;7.15;;
39492;SDS011;25176;51.060;3.720;2023-04-02T20:18:33;9.45;;;7.72;;
39492;SDS011;25176;51.060;3.720;2023-04-02T20:21:07;9.60;;;7.50;;
39492;SDS011;25176;51.060;3.720;2023-04-02T20:23:33;8.18;;;7.38;;
39492;SDS011;25176;51.060;3.720;2023-04-02T20:26:00;10.30;;;7.63;;
39492;SDS011;25176;51.060;3.720;2023-04-02T20:28:27;8.93;;;7.15;;
39492;SDS011;25176;51.060;3.720;2023-04-02T20:30:53;12.82;;;8.35;;
39492;SDS011;25176;51.060;3.720;2023-04-02T20:33:29;8.27;;;7.05;;
39492;SDS011;25176;51.060;3.720;2023-04-02T20:35:59;10.52;;;7.43;;
39492;SDS011;25176;51.060;3.720;2023-04-02T20:38:31;8.60;;;7.05;;